Time;durP1;ratioP1;P1;durP2;ratioP2;P2;SDS_P1;SDS_P2;PMS_P1;PMS_P2;Temp;Humidity;BMP_temperature;BMP_pressure;BME280_temperature;BME280_humidity;BME280_pressure;Samples;Min_cycle;Max_cycle;Signal;HPM_P1;HPM_P2
2022/10/06 00:00:09;;;;;;;8.77;5.13;;;15.30;1.00;;;;;;5012103;28;21404;-88
2022/10/06 00:05:38;;;;;;;8.90;4.70;;;15.30;1.00;;;;;;4994191;28;20466;-91
2022/10/06 00:08:08;;;;;;;8.70;5.13;;;15.30;1.00;;;;;;4996919;28;20431;-89
2022/10/06 00:10:46;;;;;;;8.80;5.10;;;15.20;1.00;;;;;;5013304;28;20634;-85
2022/10/06 00:15:58;;;;;;;10.00;5.57;;;15.20;1.00;;;;;;5001523;28;21397;-89
2022/10/06 00:47:09;;;;;;;8.90;5.20;;;15.20;1.00;;;;;;4973875;28;20474;-91
2022/10/06 00:49:47;;;;;;;9.10;5.00;;;15.40;1.00;;;;;;4977026;28;20518;-91
2022/10/06 00:52:32;;;;;;;9.17;5.63;;;15.50;1.00;;;;;;4975413;28;20459;-92
2022/10/06 00:55:09;;;;;;;8.80;5.20;;;15.60;1.00;;;;;;4978216;28;20454;-92
2022/10/06 00:57:40;;;;;;;8.00;4.70;;;15.80;1.00;;;;;;4966640;28;20546;-92
2022/10/06 01:00:19;;;;;;;8.27;5.00;;;15.90;1.00;;;;;;4978106;28;20463;-89
2022/10/06 01:03:06;;;;;;;13.57;4.57;;;16.00;1.00;;;;;;4967442;28;21010;-91
2022/10/06 01:05:51;;;;;;;;;;;;;;;;;;;;;
2022/10/06 01:08:19;;;;;;;8.77;3.80;;;16.30;1.00;;;;;;4979588;28;42820;-92
2022/10/06 01:11:01;;;;;;;;;;;;;;;;;;;;;
2022/10/06 01:13:30;;;;;;;7.70;4.10;;;16.40;1.00;;;;;;4956214;28;40489;-88
2022/10/06 01:16:07;;;;;;;8.17;4.63;;;16.50;1.00;;;;;;4972668;28;20493;-93
2022/10/06 01:18:41;;;;;;;8.17;4.10;;;16.60;1.00;;;;;;4960725;28;20562;-91
2022/10/06 01:21:19;;;;;;;8.90;4.57;;;16.60;1.00;;;;;;4965497;28;20463;-91
2022/10/06 01:23:58;;;;;;;8.27;4.67;;;16.60;1.00;;;;;;4959479;28;21321;-93
2022/10/06 01:26:30;;;;;;;8.90;4.73;;;16.70;1.00;;;;;;4983289;28;20472;-90
2022/10/06 01:28:58;;;;;;;7.67;4.37;;;16.70;1.00;;;;;;4989741;28;20554;-93
2022/10/06 01:31:37;;;;;;;8.97;3.70;;;16.70;1.00;;;;;;4969338;28;20472;-87
2022/10/06 01:34:10;;;;;;;7.90;3.93;;;16.60;1.00;;;;;;4975720;28;20498;-89
2022/10/06 01:36:40;;;;;;;10.00;4.50;;;16.70;1.00;;;;;;4964556;28;20430;-91
2022/10/06 01:39:09;;;;;;;8.47;4.27;;;16.70;1.00;;;;;;4987034;28;20450;-92
2022/10/06 01:41:46;;;;;;;7.57;3.97;;;16.70;1.00;;;;;;4983017;28;20509;-92
2022/10/06 01:44:19;;;;;;;7.90;4.30;;;16.70;1.00;;;;;;4974447;28;20459;-91
2022/10/06 01:46:49;;;;;;;10.20;4.33;;;16.80;1.00;;;;;;4979346;28;20423;-91
2022/10/06 01:49:18;;;;;;;8.00;4.30;;;16.70;1.00;;;;;;4967431;28;20452;-90
2022/10/06 01:51:51;;;;;;;8.53;3.90;;;16.70;1.00;;;;;;4969380;28;20494;-91
2022/10/06 01:54:20;;;;;;;7.57;4.00;;;16.60;1.00;;;;;;4987344;28;20459;-94
2022/10/06 01:56:51;;;;;;;7.30;3.83;;;16.60;1.00;;;;;;4965629;28;20447;-91
2022/10/06 01:59:19;;;;;;;8.10;4.17;;;16.50;1.00;;;;;;4977623;28;20562;-89
2022/10/06 02:01:48;;;;;;;7.87;4.13;;;16.50;1.00;;;;;;4974870;28;20654;-91
2022/10/06 02:04:28;;;;;;;8.43;4.80;;;16.50;1.00;;;;;;4992088;28;20446;-91
2022/10/06 02:07:08;;;;;;;7.63;4.07;;;16.50;1.00;;;;;;4975251;28;20569;-91
2022/10/06 02:09:39;;;;;;;8.77;4.10;;;16.50;1.00;;;;;;4972529;28;20442;-91
2022/10/06 02:12:10;;;;;;;8.53;4.27;;;16.50;1.00;;;;;;4980054;28;21426;-86
2022/10/06 02:14:38;;;;;;;8.07;3.80;;;16.50;1.00;;;;;;4962086;28;20475;-93
2022/10/06 02:17:18;;;;;;;9.20;4.53;;;16.50;1.00;;;;;;4978223;28;20449;-89
2022/10/06 02:22:42;;;;;;;7.20;4.17;;;16.40;1.00;;;;;;4973256;28;20503;-85
2022/10/06 02:25:30;;;;;;;9.20;5.10;;;16.40;1.00;;;;;;4988030;28;20500;-93
2022/10/06 02:30:40;;;;;;;9.83;4.87;;;16.30;1.00;;;;;;5042509;23;20482;-85
2022/10/06 02:33:09;;;;;;;8.17;4.80;;;16.30;1.00;;;;;;5003294;28;20455;-92
2022/10/06 02:35:41;;;;;;;11.20;5.37;;;16.20;1.00;;;;;;4994237;28;20476;-93
2022/10/06 02:38:11;;;;;;;10.07;5.37;;;16.30;1.00;;;;;;5020752;28;20462;-85
2022/10/06 02:40:46;;;;;;;8.83;5.10;;;16.30;1.00;;;;;;5003363;28;20537;-83
2022/10/06 02:43:18;;;;;;;9.13;5.13;;;16.30;1.00;;;;;;5008488;28;20529;-92
2022/10/06 02:45:57;;;;;;;7.53;4.70;;;16.30;1.00;;;;;;4996155;28;20456;-90
2022/10/06 02:48:30;;;;;;;8.30;5.37;;;16.30;1.00;;;;;;5008312;28;20458;-84
2022/10/06 02:51:07;;;;;;;10.07;5.00;;;16.20;1.00;;;;;;5010849;28;20518;-93
2022/10/06 02:53:46;;;;;;;9.20;5.20;;;16.10;1.00;;;;;;4991430;28;20491;-85
2022/10/06 02:56:29;;;;;;;8.67;5.13;;;16.10;1.00;;;;;;4998223;28;20879;-93
2022/10/06 02:59:11;;;;;;;9.20;5.70;;;16.00;1.00;;;;;;5019169;28;20560;-92
2022/10/06 03:01:40;;;;;;;9.30;5.90;;;16.00;1.00;;;;;;5017529;28;20504;-92
2022/10/06 03:04:10;;;;;;;9.00;5.27;;;16.10;1.00;;;;;;5007136;28;20572;-87
2022/10/06 03:06:39;;;;;;;9.70;5.13;;;16.10;1.00;;;;;;5006767;28;20474;-91
2022/10/06 03:09:21;;;;;;;;;;;;;;;;;;;;;
2022/10/06 03:11:50;;;;;;;9.07;5.10;;;16.10;1.00;;;;;;4995758;28;42145;-91
2022/10/06 03:17:11;;;;;;;11.03;5.60;;;16.20;1.00;;;;;;5383131;22;20986;-87
2022/10/06 03:19:40;;;;;;;9.10;5.10;;;16.20;1.00;;;;;;5069411;28;20457;-87
2022/10/06 03:24:51;;;;;;;9.10;5.50;;;16.20;1.00;;;;;;5329453;22;20420;-85
2022/10/06 03:27:19;;;;;;;10.70;5.67;;;16.20;1.00;;;;;;5001904;28;20439;-82
2022/10/06 03:30:01;;;;;;;;;;;;;;;;;;;;;
2022/10/06 03:32:29;;;;;;;11.10;5.70;;;16.30;1.00;;;;;;4995904;28;40799;-88
2022/10/06 03:35:17;;;;;;;9.80;5.27;;;16.30;1.00;;;;;;5018596;28;20488;-87
2022/10/06 03:37:50;;;;;;;8.80;4.87;;;16.30;1.00;;;;;;5033969;28;20480;-91
2022/10/06 03:43:07;;;;;;;13.10;4.97;;;16.30;1.00;;;;;;5265934;22;20423;-86
2022/10/06 03:45:40;;;;;;;10.77;5.20;;;16.30;1.00;;;;;;5015460;28;20496;-89
2022/10/06 03:48:09;;;;;;;10.63;5.10;;;16.30;1.00;;;;;;5011837;28;23967;-88
2022/10/06 03:50:47;;;;;;;8.40;4.60;;;16.40;1.00;;;;;;5009761;28;20809;-89
2022/10/06 03:53:24;;;;;;;8.93;4.50;;;16.40;1.00;;;;;;5010759;28;20456;-88
2022/10/06 03:56:08;;;;;;;9.73;4.70;;;16.40;1.00;;;;;;4980224;28;20432;-87
2022/10/06 03:58:52;;;;;;;;;;;;;;;;;;;;;
2022/10/06 04:01:21;;;;;;;8.30;4.20;;;16.10;1.00;;;;;;5004922;28;41955;-89
2022/10/06 04:03:48;;;;;;;8.50;4.53;;;16.00;1.00;;;;;;4989766;28;20462;-86
2022/10/06 04:06:47;;;;;;;8.63;4.10;;;15.90;1.00;;;;;;5013450;28;20438;-88
2022/10/06 04:09:19;;;;;;;8.50;3.73;;;15.90;1.00;;;;;;4997483;28;20450;-90
2022/10/06 04:11:50;;;;;;;11.00;4.00;;;15.90;1.00;;;;;;5012094;28;20483;-81
2022/10/06 04:14:19;;;;;;;8.47;3.53;;;15.90;1.00;;;;;;5003145;28;20614;-83
2022/10/06 04:16:48;;;;;;;8.37;5.10;;;15.90;1.00;;;;;;5002049;28;20475;-83
2022/10/06 04:19:17;;;;;;;8.60;3.57;;;15.90;1.00;;;;;;5021767;28;20470;-87
2022/10/06 04:21:46;;;;;;;8.80;3.77;;;15.90;1.00;;;;;;5011752;28;20428;-84
2022/10/06 04:24:15;;;;;;;9.80;4.23;;;16.00;1.00;;;;;;5009406;28;20562;-86
2022/10/06 04:26:47;;;;;;;8.40;3.67;;;16.00;1.00;;;;;;5010144;28;20458;-84
2022/10/06 04:29:14;;;;;;;9.23;3.33;;;16.00;1.00;;;;;;5021029;28;20422;-84
2022/10/06 04:31:46;;;;;;;8.10;3.27;;;16.10;1.00;;;;;;5011080;28;20464;-81
2022/10/06 04:34:13;;;;;;;8.53;3.30;;;16.10;1.00;;;;;;5013003;28;20589;-82
2022/10/06 04:36:41;;;;;;;7.03;2.67;;;16.10;1.00;;;;;;5009473;28;20430;-81
2022/10/06 04:39:11;;;;;;;6.67;2.20;;;16.10;1.00;;;;;;5011682;28;20423;-83
2022/10/06 04:41:46;;;;;;;8.30;2.20;;;16.20;1.00;;;;;;5006167;28;20414;-83
2022/10/06 04:44:14;;;;;;;7.20;1.80;;;16.20;1.00;;;;;;5012519;28;20438;-83
2022/10/06 04:46:43;;;;;;;6.40;1.90;;;16.30;1.00;;;;;;5005831;28;20499;-84
2022/10/06 04:49:11;;;;;;;7.70;1.23;;;16.30;1.00;;;;;;5011360;28;20435;-84
2022/10/06 04:51:38;;;;;;;5.30;1.37;;;16.40;1.00;;;;;;5007163;28;20471;-84
2022/10/06 04:54:04;;;;;;;5.60;1.70;;;16.50;1.00;;;;;;4997767;28;20477;-84
2022/10/06 04:56:32;;;;;;;7.30;2.33;;;16.50;1.00;;;;;;5001745;28;20477;-82
2022/10/06 04:59:00;;;;;;;5.70;1.60;;;16.60;1.00;;;;;;5006431;28;20458;-86
2022/10/06 05:01:29;;;;;;;6.40;1.83;;;16.60;1.00;;;;;;5010869;28;20475;-88
2022/10/06 05:03:59;;;;;;;5.53;1.50;;;16.60;1.00;;;;;;5009402;28;20482;-86
2022/10/06 05:06:28;;;;;;;5.70;1.63;;;16.60;1.00;;;;;;5013490;28;20467;-87
2022/10/06 05:09:01;;;;;;;5.73;1.53;;;16.60;1.00;;;;;;5010233;28;20452;-86
2022/10/06 05:11:28;;;;;;;6.90;1.77;;;16.60;1.00;;;;;;5007188;28;20467;-87
2022/10/06 05:13:56;;;;;;;7.50;1.37;;;16.60;1.00;;;;;;5009781;28;20442;-86
2022/10/06 05:16:26;;;;;;;7.50;1.70;;;16.60;1.00;;;;;;5013538;28;21400;-85
2022/10/06 05:18:56;;;;;;;5.57;1.60;;;16.60;1.00;;;;;;5009219;28;20553;-84
2022/10/06 05:21:31;;;;;;;5.67;1.30;;;16.60;1.00;;;;;;5513211;23;20401;-83
2022/10/06 05:24:01;;;;;;;6.47;1.33;;;16.50;1.00;;;;;;5066319;28;21450;-82
2022/10/06 05:26:29;;;;;;;5.10;1.10;;;16.50;1.00;;;;;;5066748;28;21071;-84
2022/10/06 05:28:57;;;;;;;5.40;1.20;;;16.50;1.00;;;;;;5081725;28;20440;-83
2022/10/06 05:31:26;;;;;;;5.50;1.40;;;16.40;1.00;;;;;;5070397;28;20470;-85
2022/10/06 05:33:54;;;;;;;6.10;1.40;;;16.40;1.00;;;;;;5065242;28;20509;-85
2022/10/06 05:36:28;;;;;;;5.93;1.80;;;16.40;1.00;;;;;;5075843;28;20508;-84
2022/10/06 05:38:55;;;;;;;5.63;1.10;;;16.40;1.00;;;;;;5074108;28;20468;-86
2022/10/06 05:41:24;;;;;;;6.90;1.27;;;16.40;1.00;;;;;;5067494;28;20460;-86
2022/10/06 05:43:51;;;;;;;5.60;1.30;;;16.40;1.00;;;;;;5072207;28;20479;-86
2022/10/06 05:46:23;;;;;;;6.73;1.50;;;16.50;1.00;;;;;;5069366;28;20415;-86
2022/10/06 05:48:53;;;;;;;5.27;1.10;;;16.50;1.00;;;;;;5067566;28;20435;-85
2022/10/06 05:51:21;;;;;;;5.60;1.00;;;16.50;1.00;;;;;;5069249;28;20446;-86
2022/10/06 05:53:49;;;;;;;5.63;1.03;;;16.50;1.00;;;;;;5074052;28;20470;-82
2022/10/06 05:56:18;;;;;;;5.90;1.20;;;16.40;1.00;;;;;;5065991;28;20544;-81
2022/10/06 05:58:47;;;;;;;8.53;1.20;;;16.30;1.00;;;;;;5064509;28;21355;-84
2022/10/06 06:01:16;;;;;;;6.73;2.40;;;16.20;1.00;;;;;;5067936;28;20455;-83
2022/10/06 06:03:47;;;;;;;5.30;1.03;;;16.10;1.00;;;;;;5068187;28;20479;-86
2022/10/06 06:06:20;;;;;;;4.87;0.90;;;16.10;1.00;;;;;;5068900;28;20435;-83
2022/10/06 06:08:51;;;;;;;5.80;1.03;;;16.10;1.00;;;;;;5073510;28;20427;-85
2022/10/06 06:11:24;;;;;;;5.97;1.00;;;15.90;1.00;;;;;;5074322;28;20459;-85
2022/10/06 06:13:51;;;;;;;5.63;1.10;;;15.90;1.00;;;;;;5069658;28;20459;-85
2022/10/06 06:16:16;;;;;;;5.20;1.00;;;15.80;1.00;;;;;;5070023;28;20461;-81
2022/10/06 06:18:43;;;;;;;7.27;1.53;;;15.80;1.00;;;;;;5071301;28;20494;-86
2022/10/06 06:21:11;;;;;;;5.10;0.70;;;15.70;1.00;;;;;;5072875;28;20244;-86
2022/10/06 06:23:40;;;;;;;6.13;0.83;;;15.70;1.00;;;;;;5075976;28;21374;-85
2022/10/06 06:26:10;;;;;;;6.90;1.13;;;15.60;1.00;;;;;;5073887;28;20455;-85
2022/10/06 06:28:39;;;;;;;7.03;1.40;;;15.60;1.00;;;;;;5072202;28;20445;-86
2022/10/06 06:31:08;;;;;;;7.53;1.30;;;15.60;1.00;;;;;;5076157;28;21103;-86
2022/10/06 06:33:36;;;;;;;6.53;1.33;;;15.60;1.00;;;;;;5071965;28;20479;-86
2022/10/06 06:36:11;;;;;;;5.60;1.97;;;15.70;1.00;;;;;;5072491;28;20505;-85
2022/10/06 06:38:38;;;;;;;7.33;1.30;;;15.70;1.00;;;;;;5082103;28;20428;-84
2022/10/06 06:41:12;;;;;;;5.63;1.20;;;15.60;1.00;;;;;;5073538;28;20467;-83
2022/10/06 06:43:40;;;;;;;6.90;1.33;;;15.60;1.00;;;;;;5073213;28;20476;-86
2022/10/06 06:46:09;;;;;;;7.33;1.50;;;15.70;1.00;;;;;;5074531;28;21209;-86
2022/10/06 06:48:39;;;;;;;6.13;0.93;;;15.60;1.00;;;;;;5071581;28;20923;-84
2022/10/06 06:51:09;;;;;;;6.90;1.07;;;15.70;1.00;;;;;;5073863;28;20420;-87
2022/10/06 06:53:39;;;;;;;6.97;1.00;;;15.60;1.00;;;;;;5081193;28;20454;-84
2022/10/06 06:56:08;;;;;;;5.10;0.93;;;15.70;1.00;;;;;;5070225;28;20449;-88
2022/10/06 06:58:36;;;;;;;5.50;1.17;;;15.70;1.00;;;;;;5077234;27;20445;-84
2022/10/06 07:01:12;;;;;;;7.53;1.80;;;15.80;1.00;;;;;;5066920;28;20431;-85
2022/10/06 07:03:44;;;;;;;6.53;1.50;;;16.00;1.00;;;;;;5066925;28;20455;-87
2022/10/06 07:06:13;;;;;;;9.20;1.20;;;16.10;1.00;;;;;;5067958;28;20444;-84
2022/10/06 07:08:42;;;;;;;6.10;1.10;;;16.10;1.00;;;;;;5066708;28;20522;-81
2022/10/06 07:11:14;;;;;;;7.40;1.73;;;16.00;1.00;;;;;;5069009;28;21017;-83
2022/10/06 07:13:42;;;;;;;7.07;1.10;;;16.00;1.00;;;;;;5063835;28;20547;-86
2022/10/06 07:27:28;;;;;;;6.40;1.20;;;15.90;1.00;;;;;;5082778;28;20525;-84
2022/10/06 07:29:55;;;;;;;7.20;1.50;;;16.00;1.00;;;;;;5068521;28;20440;-78
2022/10/06 07:32:29;;;;;;;10.70;4.70;;;16.00;1.00;;;;;;5050033;28;20542;-81
2022/10/06 07:34:57;;;;;;;6.00;1.50;;;16.00;1.00;;;;;;5066495;28;21296;-79
2022/10/06 07:37:24;;;;;;;7.47;1.60;;;16.00;1.00;;;;;;5059465;28;20488;-80
2022/10/06 07:39:51;;;;;;;7.93;2.27;;;16.00;1.00;;;;;;5062874;28;20468;-81
2022/10/06 07:42:18;;;;;;;7.30;1.53;;;16.10;1.00;;;;;;5063205;28;21151;-81
2022/10/06 07:45:36;;;;;;;8.30;1.43;;;16.10;1.00;;;;;;5065779;28;20455;-84
2022/10/06 07:47:39;;;;;;;8.63;1.63;;;16.10;1.00;;;;;;5064181;28;20431;-80
2022/10/06 07:50:07;;;;;;;5.73;1.40;;;16.30;1.00;;;;;;5068532;28;20435;-80
2022/10/06 07:52:37;;;;;;;8.57;1.60;;;16.40;1.00;;;;;;5062547;28;20468;-82
2022/10/06 07:55:05;;;;;;;9.00;1.60;;;16.60;1.00;;;;;;5065522;28;20468;-83
2022/10/06 07:57:33;;;;;;;9.63;1.90;;;16.70;1.00;;;;;;5062888;28;20452;-78
2022/10/06 08:00:01;;;;;;;6.80;1.73;;;16.90;1.00;;;;;;5065819;28;20460;-81
2022/10/06 08:02:27;;;;;;;6.10;1.47;;;17.00;1.00;;;;;;5063770;28;20463;-79
2022/10/06 08:04:57;;;;;;;5.87;1.50;;;17.00;1.00;;;;;;5064483;28;20562;-79
2022/10/06 08:07:24;;;;;;;7.87;2.13;;;17.00;1.00;;;;;;5066094;28;20602;-79
2022/10/06 08:09:50;;;;;;;5.90;1.57;;;16.90;1.00;;;;;;5064123;28;20495;-80
2022/10/06 08:12:32;;;;;;;6.23;1.77;;;16.70;1.00;;;;;;5063524;28;20448;-80
2022/10/06 08:15:01;;;;;;;6.20;1.43;;;16.60;1.00;;;;;;5065731;28;20464;-80
2022/10/06 08:17:29;;;;;;;7.57;1.47;;;16.70;1.00;;;;;;5061851;28;20409;-77
2022/10/06 08:19:57;;;;;;;10.40;1.70;;;16.80;1.00;;;;;;5063814;28;20483;-80
2022/10/06 08:22:26;;;;;;;6.40;1.80;;;16.90;1.00;;;;;;5062275;28;20455;-80
2022/10/06 08:24:53;;;;;;;7.17;1.60;;;17.20;1.00;;;;;;5059630;28;20948;-80
2022/10/06 08:27:23;;;;;;;7.43;1.80;;;17.40;1.00;;;;;;5064548;28;20964;-81
2022/10/06 08:29:49;;;;;;;6.83;1.40;;;17.40;1.00;;;;;;5058005;28;20947;-79
2022/10/06 08:32:17;;;;;;;6.27;1.50;;;17.40;1.00;;;;;;5062824;28;20460;-82
2022/10/06 08:34:44;;;;;;;5.80;1.70;;;17.50;1.00;;;;;;5058239;28;21287;-80
2022/10/06 08:37:13;;;;;;;7.30;1.60;;;17.50;1.00;;;;;;5062270;28;20459;-80
2022/10/06 08:39:42;;;;;;;6.87;1.47;;;17.60;1.00;;;;;;5059775;28;20476;-79
2022/10/06 08:42:14;;;;;;;12.27;1.93;;;18.30;1.00;;;;;;5060933;28;20446;-79
2022/10/06 08:44:45;;;;;;;6.50;1.60;;;19.00;1.00;;;;;;5062016;28;20560;-79
2022/10/06 08:47:16;;;;;;;6.40;1.70;;;19.50;1.00;;;;;;5057160;28;20455;-80
2022/10/06 08:49:46;;;;;;;6.03;1.53;;;19.30;1.00;;;;;;5059226;28;20461;-80
2022/10/06 08:52:24;;;;;;;6.47;1.80;;;20.10;1.00;;;;;;5056599;28;20487;-80
2022/10/06 08:55:00;;;;;;;6.27;1.40;;;20.10;1.00;;;;;;5059423;28;20464;-80
2022/10/06 08:57:33;;;;;;;6.47;1.63;;;19.40;1.00;;;;;;5064090;28;20562;-81
2022/10/06 09:00:03;;;;;;;7.00;1.43;;;19.50;1.00;;;;;;5061286;28;20459;-80
2022/10/06 09:02:37;;;;;;;7.13;2.13;;;20.80;1.00;;;;;;5062940;28;20556;-80
2022/10/06 09:05:07;;;;;;;5.03;1.27;;;21.50;1.00;;;;;;5064354;28;20471;-81
2022/10/06 09:07:48;;;;;;;4.37;1.53;;;20.80;1.00;;;;;;5050543;28;20481;-80
2022/10/06 09:10:34;;;;;;;8.20;1.80;;;20.30;1.00;;;;;;5071263;28;20843;-79
2022/10/06 09:13:06;;;;;;;5.87;1.87;;;19.60;1.00;;;;;;5060266;28;20471;-80
2022/10/06 09:15:38;;;;;;;6.13;1.60;;;20.60;1.00;;;;;;5054308;28;20494;-80
2022/10/06 09:18:09;;;;;;;6.00;1.43;;;21.10;1.00;;;;;;5061790;28;20593;-80
2022/10/06 09:20:42;;;;;;;9.67;1.87;;;21.80;1.00;;;;;;5058842;28;20587;-81
2022/10/06 09:23:16;;;;;;;7.47;1.97;;;22.90;1.00;;;;;;5059888;28;20477;-81
2022/10/06 09:25:44;;;;;;;5.00;2.10;;;23.70;1.00;;;;;;5060121;28;20491;-80
2022/10/06 09:28:14;;;;;;;5.57;1.63;;;24.50;1.00;;;;;;5059887;28;20531;-81
2022/10/06 09:30:42;;;;;;;7.23;1.97;;;23.90;1.00;;;;;;5047743;28;20507;-81
2022/10/06 09:33:17;;;;;;;7.33;2.17;;;23.10;1.00;;;;;;5075917;28;20460;-85
2022/10/06 09:36:05;;;;;;;7.70;1.90;;;22.50;1.00;;;;;;5066663;28;20483;-85
2022/10/06 09:38:49;;;;;;;7.37;2.30;;;22.30;1.00;;;;;;5060386;28;20486;-86
2022/10/06 09:41:16;;;;;;;6.30;1.70;;;21.70;1.00;;;;;;5063118;28;20637;-87
2022/10/06 09:43:54;;;;;;;5.33;1.83;;;21.60;1.00;;;;;;5069379;28;20455;-87
2022/10/06 09:46:28;;;;;;;4.90;1.77;;;21.70;1.00;;;;;;5072887;28;20972;-86
2022/10/06 09:49:22;;;;;;;7.70;2.00;;;21.70;1.00;;;;;;5067381;28;20452;-85
2022/10/06 09:52:00;;;;;;;5.47;1.90;;;21.40;1.00;;;;;;5032347;28;20455;-86
2022/10/06 09:54:30;;;;;;;7.80;2.00;;;21.40;1.00;;;;;;5066327;28;20472;-84
2022/10/06 09:56:58;;;;;;;8.60;1.90;;;21.40;1.00;;;;;;5056831;28;20520;-88
2022/10/06 09:59:32;;;;;;;6.70;1.73;;;21.20;1.00;;;;;;5067452;28;20454;-81
2022/10/06 10:02:00;;;;;;;5.47;2.00;;;20.90;1.00;;;;;;5073693;28;20412;-88
2022/10/06 10:04:30;;;;;;;7.37;2.20;;;21.10;1.00;;;;;;5067454;28;21258;-87
2022/10/06 10:07:24;;;;;;;5.03;1.70;;;21.80;1.00;;;;;;5065589;28;20467;-85
2022/10/06 10:09:54;;;;;;;6.33;2.13;;;22.30;1.00;;;;;;5070880;28;20442;-86
2022/10/06 10:12:23;;;;;;;5.17;1.67;;;22.60;1.00;;;;;;5072378;28;20514;-86
2022/10/06 10:14:51;;;;;;;5.53;1.53;;;24.00;1.00;;;;;;5067138;28;20472;-86
2022/10/06 10:17:22;;;;;;;4.70;1.63;;;24.80;1.00;;;;;;5071210;28;20432;-83
2022/10/06 10:19:54;;;;;;;5.90;2.10;;;25.40;1.00;;;;;;5064828;28;20455;-86
2022/10/06 10:22:30;;;;;;;5.67;2.37;;;25.10;1.00;;;;;;5068327;28;20461;-85
2022/10/06 10:25:12;;;;;;;4.77;1.37;;;24.90;1.00;;;;;;5082591;28;20869;-83
2022/10/06 10:27:58;;;;;;;6.13;1.77;;;25.00;1.00;;;;;;5076792;28;20483;-85
2022/10/06 10:30:28;;;;;;;5.13;1.70;;;24.80;1.00;;;;;;5073884;28;20431;-86
2022/10/06 10:33:20;;;;;;;6.43;1.50;;;24.50;1.00;;;;;;5073420;28;20481;-88
2022/10/06 10:36:01;;;;;;;6.03;1.50;;;23.80;1.00;;;;;;5075672;28;20502;-87
2022/10/06 10:38:33;;;;;;;9.73;1.70;;;22.90;1.00;;;;;;5078086;28;20474;-87
2022/10/06 10:41:15;;;;;;;6.97;2.10;;;22.10;1.00;;;;;;5077843;28;20451;-86
2022/10/06 10:43:52;;;;;;;6.00;2.20;;;22.30;1.00;;;;;;5080915;28;20454;-81
2022/10/06 10:46:26;;;;;;;5.03;1.60;;;23.30;1.00;;;;;;5074295;28;20427;-86
2022/10/06 10:49:00;;;;;;;4.77;1.30;;;24.30;1.00;;;;;;5065321;28;20510;-88
2022/10/06 10:51:37;;;;;;;4.80;1.87;;;24.70;1.00;;;;;;5078366;28;20446;-85
2022/10/06 10:54:18;;;;;;;9.43;5.40;;;24.90;1.00;;;;;;5081666;28;20454;-88
2022/10/06 10:56:51;;;;;;;4.37;1.63;;;25.70;1.00;;;;;;5084809;28;20435;-86
2022/10/06 10:59:29;;;;;;;5.97;1.60;;;25.90;1.00;;;;;;5081062;28;20431;-82
2022/10/06 11:02:19;;;;;;;6.60;2.07;;;26.60;1.00;;;;;;5082384;28;20423;-88
2022/10/06 11:05:01;;;;;;;4.40;1.17;;;26.80;1.00;;;;;;5071672;28;20496;-82
2022/10/06 11:07:48;;;;;;;4.73;1.70;;;27.90;1.00;;;;;;5065474;28;20448;-82
2022/10/06 11:10:24;;;;;;;5.37;1.50;;;28.90;1.00;;;;;;5068810;28;20495;-82
2022/10/06 11:13:10;;;;;;;4.90;1.50;;;30.20;1.00;;;;;;5066109;28;20443;-83
2022/10/06 11:15:59;;;;;;;3.87;1.70;;;31.80;1.00;;;;;;5066715;28;20435;-84
2022/10/06 11:18:44;;;;;;;5.30;2.23;;;33.30;1.00;;;;;;5068017;28;20421;-82
2022/10/06 11:21:16;;;;;;;3.30;1.33;;;34.50;1.00;;;;;;5067816;28;20575;-81
2022/10/06 11:24:03;;;;;;;6.30;2.00;;;35.50;1.00;;;;;;5047996;28;20465;-84
2022/10/06 11:26:52;;;;;;;5.63;1.60;;;35.80;1.00;;;;;;5050009;28;20496;-84
2022/10/06 11:29:28;;;;;;;3.73;1.30;;;35.30;1.00;;;;;;5050338;28;20480;-83
2022/10/06 11:32:09;;;;;;;5.73;2.00;;;33.00;1.00;;;;;;5050133;28;20484;-85
2022/10/06 11:34:41;;;;;;;3.87;1.50;;;31.50;1.00;;;;;;5049295;28;20537;-83
2022/10/06 11:37:21;;;;;;;4.67;1.67;;;31.70;1.00;;;;;;5046187;28;20453;-82
2022/10/06 11:39:55;;;;;;;3.77;1.43;;;32.50;1.00;;;;;;5052818;28;20545;-82
2022/10/06 11:42:29;;;;;;;5.10;2.00;;;33.60;1.00;;;;;;5048342;28;20494;-84
2022/10/06 11:45:03;;;;;;;3.17;1.53;;;34.20;1.00;;;;;;5050129;28;21539;-84
2022/10/06 11:47:34;;;;;;;2.13;0.80;;;34.30;1.00;;;;;;5047018;28;20471;-84
2022/10/06 11:50:02;;;;;;;4.70;1.70;;;33.60;1.00;;;;;;5044220;28;20471;-85
2022/10/06 11:52:54;;;;;;;3.27;1.90;;;33.30;1.00;;;;;;5046687;28;20488;-84
2022/10/06 11:55:25;;;;;;;5.47;1.80;;;33.60;1.00;;;;;;5048921;28;20453;-85
2022/10/06 11:58:24;;;;;;;4.80;1.73;;;34.30;1.00;;;;;;5047468;28;20459;-84
2022/10/06 12:00:53;;;;;;;2.90;1.30;;;35.10;1.00;;;;;;5049855;28;21317;-84
2022/10/06 12:04:14;;;;;;;3.47;1.30;;;35.30;1.00;;;;;;5046213;28;20496;-84
2022/10/06 12:06:55;;;;;;;3.83;1.90;;;35.20;1.00;;;;;;5047695;28;20464;-85
2022/10/06 12:10:14;;;;;;;3.73;1.47;;;35.10;1.00;;;;;;5045671;28;20519;-84
2022/10/06 12:12:44;;;;;;;3.10;1.57;;;34.70;1.00;;;;;;5046613;28;20469;-84
2022/10/06 12:15:22;;;;;;;3.50;1.70;;;33.60;1.00;;;;;;5053142;28;20450;-85
2022/10/06 12:17:58;;;;;;;3.77;1.40;;;32.00;1.00;;;;;;5041500;28;20479;-83
2022/10/06 12:20:39;;;;;;;5.17;1.40;;;30.40;1.00;;;;;;5048908;28;20997;-82
2022/10/06 12:23:39;;;;;;;3.97;1.70;;;29.90;1.00;;;;;;5066690;28;20465;-84
2022/10/06 12:26:21;;;;;;;3.40;1.30;;;29.40;1.00;;;;;;5065819;28;20494;-84
2022/10/06 12:28:54;;;;;;;5.00;1.47;;;28.30;1.00;;;;;;5064262;28;20451;-85
2022/10/06 12:31:51;;;;;;;4.10;1.80;;;26.80;1.00;;;;;;5067101;28;20459;-84
2022/10/06 12:34:51;;;;;;;4.83;2.20;;;26.30;1.00;;;;;;5059384;28;20491;-84
2022/10/06 12:37:40;;;;;;;3.63;1.30;;;27.20;1.00;;;;;;5071093;28;20470;-85
2022/10/06 12:40:54;;;;;;;5.50;2.03;;;28.30;1.00;;;;;;5076979;28;20455;-85
2022/10/06 12:43:41;;;;;;;3.50;2.00;;;27.90;1.00;;;;;;5069935;28;20451;-83
2022/10/06 12:46:16;;;;;;;3.40;1.60;;;26.90;1.00;;;;;;5069769;28;20504;-84
2022/10/06 12:48:54;;;;;;;4.47;1.60;;;25.90;1.00;;;;;;5070976;28;20595;-83
2022/10/06 12:51:30;;;;;;;3.80;1.47;;;24.90;1.00;;;;;;5069921;28;20965;-80
2022/10/06 12:54:07;;;;;;;5.73;1.90;;;24.50;1.00;;;;;;5068214;28;20582;-82
2022/10/06 12:56:36;;;;;;;4.30;2.10;;;24.20;1.00;;;;;;5069605;28;20460;-81
2022/10/06 12:59:20;;;;;;;4.43;1.77;;;23.40;1.00;;;;;;5068268;28;20519;-84
2022/10/06 13:01:50;;;;;;;4.03;1.77;;;22.60;1.00;;;;;;5068666;28;20509;-82
2022/10/06 13:04:48;;;;;;;3.90;1.77;;;22.10;1.00;;;;;;5073419;28;21043;-80
2022/10/06 13:07:22;;;;;;;5.23;2.57;;;22.10;1.00;;;;;;5070278;28;20464;-82
2022/10/06 13:09:53;;;;;;;2.40;1.20;;;21.60;1.00;;;;;;5068288;28;20455;-82
2022/10/06 13:12:34;;;;;;;3.77;1.50;;;21.30;1.00;;;;;;5073844;28;20452;-80
2022/10/06 13:15:19;;;;;;;3.90;1.70;;;21.00;1.00;;;;;;5077140;28;20484;-81
2022/10/06 13:17:53;;;;;;;3.87;1.37;;;20.80;1.00;;;;;;5069272;28;20499;-80
2022/10/06 13:20:26;;;;;;;4.30;1.90;;;20.60;1.00;;;;;;5064188;28;20545;-80
2022/10/06 13:23:07;;;;;;;6.70;2.10;;;20.40;1.00;;;;;;5064305;28;20443;-83
2022/10/06 13:25:43;;;;;;;4.00;1.60;;;20.20;1.00;;;;;;5077189;28;20524;-81
2022/10/06 13:28:46;;;;;;;4.60;1.73;;;20.10;1.00;;;;;;5073935;28;20422;-81
2022/10/06 13:31:26;;;;;;;5.43;1.50;;;19.90;1.00;;;;;;5069281;28;20467;-80
2022/10/06 13:33:59;;;;;;;6.10;2.10;;;19.70;1.00;;;;;;5056217;28;20427;-80
2022/10/06 13:36:30;;;;;;;6.57;1.73;;;19.80;1.00;;;;;;5064059;28;20459;-80
2022/10/06 13:38:59;;;;;;;4.40;1.57;;;19.90;1.00;;;;;;5069357;28;20519;-80
2022/10/06 13:41:29;;;;;;;5.00;2.00;;;19.90;1.00;;;;;;5067484;28;20478;-79
2022/10/06 13:44:09;;;;;;;6.90;1.70;;;19.80;1.00;;;;;;5075031;28;20431;-81
2022/10/06 13:46:42;;;;;;;4.33;1.70;;;19.80;1.00;;;;;;5056791;28;20535;-79
2022/10/06 13:49:18;;;;;;;6.87;1.53;;;19.70;1.00;;;;;;5080755;28;20470;-79
2022/10/06 13:51:49;;;;;;;6.70;1.90;;;19.70;1.00;;;;;;5067219;28;20419;-79
2022/10/06 13:54:24;;;;;;;5.17;2.30;;;19.80;1.00;;;;;;5066954;28;20416;-81
2022/10/06 13:56:52;;;;;;;5.20;1.67;;;19.80;1.00;;;;;;5069761;28;20451;-79
2022/10/06 13:59:37;;;;;;;4.23;1.70;;;19.70;1.00;;;;;;5064712;28;20436;-82
2022/10/06 14:02:27;;;;;;;4.10;1.80;;;19.60;1.00;;;;;;5068121;28;20476;-80
2022/10/06 14:05:25;;;;;;;5.00;1.63;;;19.40;1.00;;;;;;5058828;28;20488;-81
2022/10/06 14:07:56;;;;;;;7.27;1.87;;;19.40;1.00;;;;;;5062731;28;20462;-80
2022/10/06 14:10:29;;;;;;;3.53;1.40;;;19.40;1.00;;;;;;5072256;28;20539;-81
2022/10/06 14:12:59;;;;;;;6.17;2.37;;;19.40;1.00;;;;;;5065183;28;20463;-80
2022/10/06 14:15:29;;;;;;;4.77;2.30;;;19.30;1.00;;;;;;5066133;28;20459;-81
2022/10/06 14:18:03;;;;;;;4.23;1.77;;;19.20;1.00;;;;;;5062491;28;20510;-80
2022/10/06 14:20:44;;;;;;;4.93;1.43;;;19.10;1.00;;;;;;5068884;28;20947;-81
2022/10/06 14:23:41;;;;;;;6.20;2.73;;;19.00;1.00;;;;;;5075303;28;20439;-81
2022/10/06 14:26:12;;;;;;;5.20;1.43;;;19.00;1.00;;;;;;5075353;28;20517;-79
2022/10/06 14:28:44;;;;;;;6.70;1.33;;;18.90;1.00;;;;;;5065567;28;20481;-80
2022/10/06 14:31:12;;;;;;;4.40;1.47;;;18.90;1.00;;;;;;5068697;28;20547;-80
2022/10/06 14:33:40;;;;;;;4.83;1.50;;;18.90;1.00;;;;;;5064647;28;20523;-81
2022/10/06 14:36:18;;;;;;;8.33;1.73;;;18.80;1.00;;;;;;5073403;28;20429;-82
2022/10/06 14:38:47;;;;;;;4.17;1.70;;;18.70;1.00;;;;;;5072450;28;20443;-81